Time;durP1;ratioP1;P1;durP2;ratioP2;P2;SDS_P1;SDS_P2;PMS_P1;PMS_P2;Temp;Humidity;BMP_temperature;BMP_pressure;BME280_temperature;BME280_humidity;BME280_pressure;Samples;Min_cycle;Max_cycle;Signal;HPM_P1;HPM_P2
2021/03/22 00:00:23;;;;;;;30.95;11.93;;;;;;;-1.46;80.50;100477.52;1710620;82;21191;-70
2021/03/22 00:02:51;;;;;;;24.18;10.23;;;;;;;-1.46;80.51;100483.20;1719776;82;21215;-69
2021/03/22 00:05:18;;;;;;;28.40;12.07;;;;;;;-1.46;80.55;100491.05;1740225;82;21209;-70
2021/03/22 00:07:44;;;;;;;28.32;11.20;;;;;;;-1.46;80.56;100500.20;1711587;82;21170;-70
2021/03/22 00:10:12;;;;;;;31.57;12.10;;;;;;;-1.46;80.58;100487.13;1710743;83;21137;-70
2021/03/22 00:12:38;;;;;;;32.90;12.18;;;;;;;-1.47;80.60;100490.20;1710175;82;21219;-70
2021/03/22 00:15:06;;;;;;;36.08;12.33;;;;;;;-1.47;80.62;100485.44;1710552;83;21161;-70
2021/03/22 00:17:32;;;;;;;35.48;12.35;;;;;;;-1.48;80.66;100483.78;1715785;82;21264;-70
2021/03/22 00:19:59;;;;;;;38.15;13.13;;;;;;;-1.47;80.69;100496.74;1739912;82;21212;-70
2021/03/22 00:22:25;;;;;;;29.87;12.35;;;;;;;-1.46;80.69;100487.13;1740239;82;21155;-69
2021/03/22 00:24:51;;;;;;;36.93;12.30;;;;;;;-1.44;80.71;100485.28;1740325;82;21199;-69
2021/03/22 00:27:17;;;;;;;33.20;12.30;;;;;;;-1.44;80.75;100482.66;1740311;82;21124;-69
2021/03/22 00:29:44;;;;;;;31.35;12.03;;;;;;;-1.45;80.76;100488.36;1739892;82;21275;-70
2021/03/22 00:32:10;;;;;;;29.77;11.93;;;;;;;-1.44;80.78;100482.66;1739307;82;21199;-69
2021/03/22 00:34:36;;;;;;;33.30;12.25;;;;;;;-1.44;80.80;100487.89;1710372;82;21195;-70
2021/03/22 00:37:03;;;;;;;34.23;12.90;;;;;;;-1.42;80.84;100490.78;1711056;82;21580;-70
2021/03/22 00:39:29;;;;;;;35.38;12.95;;;;;;;-1.41;80.83;100494.24;1710665;82;21119;-69
2021/03/22 00:41:55;;;;;;;28.05;12.00;;;;;;;-1.41;80.88;100491.17;1710798;82;21219;-69
2021/03/22 00:44:21;;;;;;;31.95;12.15;;;;;;;-1.42;80.85;100492.55;1712626;82;21611;-69
2021/03/22 00:46:48;;;;;;;32.90;11.97;;;;;;;-1.42;80.91;100496.48;1710440;83;21155;-69
2021/03/22 00:49:14;;;;;;;38.02;12.63;;;;;;;-1.44;80.91;100503.09;1736536;82;21137;-69
2021/03/22 00:51:40;;;;;;;31.87;12.03;;;;;;;-1.44;80.96;100496.55;1740122;82;21569;-69
2021/03/22 00:54:07;;;;;;;31.15;11.20;;;;;;;-1.43;80.98;100507.86;1734580;81;21260;-69
2021/03/22 00:56:33;;;;;;;35.03;12.73;;;;;;;-1.44;80.99;100498.36;1730670;81;21157;-69
2021/03/22 00:58:59;;;;;;;32.73;12.00;;;;;;;-1.44;81.01;100498.36;1731426;82;21124;-69
2021/03/22 01:01:25;;;;;;;33.42;12.63;;;;;;;-1.45;81.02;100500.12;1731267;82;21136;-69
2021/03/22 01:03:51;;;;;;;31.75;11.68;;;;;;;-1.46;81.03;100496.28;1709872;82;21212;-69
2021/03/22 01:06:18;;;;;;;27.93;10.32;;;;;;;-1.46;81.04;100486.66;1702157;84;21217;-69
2021/03/22 01:08:44;;;;;;;32.95;11.28;;;;;;;-1.46;81.07;100487.97;1701505;84;21172;-69
2021/03/22 01:11:13;;;;;;;29.35;10.13;;;;;;;-1.49;81.08;100482.08;1711990;82;21161;-69
2021/03/22 01:13:47;;;;;;;26.45;10.78;;;;;;;-1.53;81.11;100486.20;1731409;82;21150;-70
2021/03/22 01:16:13;;;;;;;24.32;9.53;;;;;;;-1.56;81.12;100484.23;1730802;82;21224;-69
2021/03/22 01:18:43;;;;;;;29.15;9.13;;;;;;;-1.60;81.15;100474.42;1733127;81;22215;-69
2021/03/22 01:21:19;;;;;;;;;;;;;;;-1.60;81.15;100482.72;1721460;82;21711;-70
2021/03/22 01:23:45;;;;;;;19.32;8.68;;;;;;;-1.62;81.18;100477.57;1696797;84;20499;-70
2021/03/22 01:26:13;;;;;;;27.67;9.68;;;;;;;-1.61;81.20;100471.88;1722224;82;21589;-69
2021/03/22 01:28:39;;;;;;;24.47;11.25;;;;;;;-1.60;81.21;100469.19;1692084;84;21149;-69
2021/03/22 01:31:06;;;;;;;47.40;18.85;;;;;;;-1.55;81.24;100466.31;1722133;83;21369;-70
2021/03/22 01:36:15;;;;;;;31.15;13.25;;;;;;;-1.48;81.27;100451.09;1787088;77;22818;-70
2021/03/22 01:38:41;;;;;;;32.42;12.85;;;;;;;-1.57;81.28;100449.39;1757081;80;21159;-70
2021/03/22 01:41:37;;;;;;;42.70;10.85;;;;;;;-1.62;81.29;100446.20;1756733;81;21191;-70
2021/03/22 01:44:35;;;;;;;24.05;9.03;;;;;;;-1.65;81.29;100440.31;1756429;81;21631;-70
2021/03/22 01:47:13;;;;;;;24.85;9.28;;;;;;;-1.69;81.29;100442.27;1756689;81;21191;-70
2021/03/22 01:49:54;;;;;;;26.75;9.83;;;;;;;-1.70;81.31;100441.92;1756692;81;21174;-70
2021/03/22 01:52:22;;;;;;;30.60;10.65;;;;;;;-1.68;81.31;100441.34;1756641;81;21183;-70
2021/03/22 01:54:50;;;;;;;28.30;10.25;;;;;;;-1.65;81.30;100437.70;1752050;80;21142;-70
2021/03/22 01:57:33;;;;;;;27.05;11.03;;;;;;;-1.64;81.31;100442.84;1756450;81;21553;-70
2021/03/22 02:00:28;;;;;;;28.20;10.03;;;;;;;-1.64;81.31;100440.70;1756894;81;21619;-70
2021/03/22 02:03:08;;;;;;;25.68;9.75;;;;;;;-1.66;81.30;100442.11;1757371;80;21596;-70
2021/03/22 02:05:36;;;;;;;26.37;10.05;;;;;;;-1.67;81.31;100437.81;1756552;80;21557;-70
2021/03/22 02:08:12;;;;;;;26.52;9.98;;;;;;;-1.70;81.31;100444.53;1758115;80;21241;-70
2021/03/22 02:10:40;;;;;;;30.48;10.45;;;;;;;-1.72;81.33;100444.22;1756443;81;21198;-70
2021/03/22 02:13:06;;;;;;;27.10;10.90;;;;;;;-1.75;81.35;100437.41;1756770;81;21190;-70
2021/03/22 02:15:32;;;;;;;29.20;11.90;;;;;;;-1.75;81.35;100437.41;1756468;81;21603;-70
2021/03/22 02:18:19;;;;;;;25.08;10.43;;;;;;;-1.74;81.34;100432.57;1765246;80;21148;-70
2021/03/22 02:21:16;;;;;;;22.90;9.10;;;;;;;-1.74;81.34;100435.65;1787662;79;21119;-70
2021/03/22 02:24:20;;;;;;;23.55;9.63;;;;;;;-1.70;81.35;100440.61;1787481;80;21155;-70
2021/03/22 02:27:11;;;;;;;25.60;9.50;;;;;;;-1.71;81.35;100444.15;1784973;80;21144;-70
2021/03/22 02:30:29;;;;;;;26.80;10.15;;;;;;;-1.73;81.37;100440.80;1786829;80;21592;-70
2021/03/22 02:33:35;;;;;;;27.07;10.75;;;;;;;-1.78;81.37;100434.98;1776604;79;21146;-70
2021/03/22 02:36:13;;;;;;;23.25;9.20;;;;;;;-1.81;81.36;100437.79;1756703;81;21207;-70
2021/03/22 02:38:56;;;;;;;26.48;9.63;;;;;;;-1.84;81.35;100442.36;1728040;81;21124;-70
2021/03/22 02:41:42;;;;;;;28.23;9.55;;;;;;;-1.85;81.36;100438.90;1756530;81;21958;-70
2021/03/22 02:44:22;;;;;;;26.02;10.95;;;;;;;-1.82;81.38;100446.55;1755596;81;21178;-70
2021/03/22 02:46:59;;;;;;;32.55;12.15;;;;;;;-1.79;81.37;100450.75;1756888;80;21123;-70
2021/03/22 02:49:26;;;;;;;35.40;13.55;;;;;;;-1.77;81.39;100450.21;1785040;80;21195;-70
2021/03/22 02:52:16;;;;;;;35.70;15.25;;;;;;;-1.74;81.39;100450.87;1735131;80;21143;-70
2021/03/22 02:54:54;;;;;;;33.10;14.93;;;;;;;-1.74;81.38;100452.64;1755703;81;21154;-69
2021/03/22 02:57:45;;;;;;;26.17;11.10;;;;;;;-1.71;81.39;100457.22;1755993;81;21650;-69
2021/03/22 03:00:22;;;;;;;19.95;9.23;;;;;;;-1.66;81.38;100452.58;1756242;81;21163;-69
2021/03/22 03:02:48;;;;;;;22.95;9.18;;;;;;;-1.66;81.34;100443.88;1756721;80;22060;-70
2021/03/22 03:05:18;;;;;;;34.85;17.98;;;;;;;-1.61;81.38;100453.13;1756138;81;21171;-69
2021/03/22 03:07:44;;;;;;;28.35;15.72;;;;;;;-1.58;81.35;100445.09;1756285;80;21168;-69
2021/03/22 03:10:14;;;;;;;28.75;15.05;;;;;;;-1.55;81.34;100449.31;1756008;81;21151;-70
2021/03/22 03:12:40;;;;;;;26.57;12.75;;;;;;;-1.51;81.33;100453.40;1756208;81;21127;-70
2021/03/22 03:15:08;;;;;;;21.00;9.53;;;;;;;-1.47;81.32;100450.13;1778591;80;21236;-69
2021/03/22 03:17:35;;;;;;;22.82;8.88;;;;;;;-1.43;81.32;100460.79;1781587;80;21123;-69
2021/03/22 03:20:01;;;;;;;26.02;10.32;;;;;;;-1.41;81.32;100459.78;1756117;80;21155;-69
2021/03/22 03:22:27;;;;;;;20.60;9.38;;;;;;;-1.37;81.30;100463.05;1777355;80;21104;-69
2021/03/22 03:24:54;;;;;;;23.45;14.03;;;;;;;-1.33;81.33;100463.22;1787125;80;21115;-70
2021/03/22 03:27:20;;;;;;;29.55;17.20;;;;;;;-1.30;81.32;100463.87;1787180;80;22349;-69
2021/03/22 03:29:46;;;;;;;26.80;16.25;;;;;;;-1.26;81.32;100463.22;1787249;80;21609;-70
2021/03/22 03:32:17;;;;;;;25.35;12.73;;;;;;;-1.24;81.32;100458.75;1786065;80;21154;-69
2021/03/22 03:34:44;;;;;;;23.62;11.80;;;;;;;-1.22;81.32;100456.87;1755871;81;21182;-70
2021/03/22 03:37:10;;;;;;;22.40;10.70;;;;;;;-1.19;81.32;100459.30;1755993;81;21146;-70
2021/03/22 03:39:36;;;;;;;22.20;9.90;;;;;;;-1.18;81.34;100464.91;1756139;81;21158;-70
2021/03/22 03:42:07;;;;;;;20.50;9.90;;;;;;;-1.18;81.33;100466.22;1764956;79;21159;-70
2021/03/22 03:44:35;;;;;;;22.32;10.50;;;;;;;-1.18;81.35;100467.52;1787267;80;21183;-69
2021/03/22 03:47:01;;;;;;;25.80;10.80;;;;;;;-1.16;81.37;100478.26;1787135;80;21162;-70
2021/03/22 03:49:27;;;;;;;26.00;12.33;;;;;;;-1.14;81.36;100481.64;1757772;80;21123;-70
2021/03/22 03:51:53;;;;;;;24.35;13.35;;;;;;;-1.15;81.34;100476.02;1756288;80;21239;-70
2021/03/22 03:54:20;;;;;;;28.25;18.07;;;;;;;-1.12;81.35;100486.77;1756031;81;21179;-70
2021/03/22 03:56:46;;;;;;;34.43;19.12;;;;;;;-1.11;81.37;100484.06;1756113;81;21191;-69
2021/03/22 03:59:12;;;;;;;28.90;15.55;;;;;;;-1.09;81.37;100489.22;1755946;81;21175;-70
2021/03/22 04:01:39;;;;;;;27.07;12.90;;;;;;;-1.07;81.36;100484.72;1755970;81;21119;-70
2021/03/22 04:04:05;;;;;;;18.73;9.45;;;;;;;-1.07;81.36;100481.64;1762740;80;21292;-70
2021/03/22 04:06:33;;;;;;;21.37;8.68;;;;;;;-1.06;81.38;100482.48;1758164;80;21654;-70
2021/03/22 04:09:06;;;;;;;22.27;9.98;;;;;;;-1.07;81.36;100484.72;1756048;81;21557;-70
2021/03/22 04:11:36;;;;;;;16.32;8.83;;;;;;;-1.10;81.37;100484.91;1756185;81;21145;-70
2021/03/22 04:14:05;;;;;;;18.65;8.50;;;;;;;-1.13;81.39;100479.41;1756241;81;21123;-70
2021/03/22 04:16:34;;;;;;;28.90;10.88;;;;;;;-1.13;81.39;100475.94;1767604;80;21569;-70
2021/03/22 04:19:00;;;;;;;37.10;18.77;;;;;;;-1.12;81.39;100475.83;1763167;80;21175;-70
2021/03/22 04:21:29;;;;;;;93.27;47.45;;;;;;;-1.10;81.40;100480.98;1756327;80;21147;-70
2021/03/22 04:23:57;;;;;;;81.17;43.70;;;;;;;-1.10;81.39;100480.52;1726731;81;21155;-70
2021/03/22 04:26:23;;;;;;;46.10;23.75;;;;;;;-1.08;81.39;100483.88;1756093;81;21167;-70
2021/03/22 04:28:49;;;;;;;27.32;13.48;;;;;;;-1.08;81.39;100478.64;1755953;81;21233;-69
2021/03/22 04:31:22;;;;;;;24.85;11.60;;;;;;;-1.08;81.39;100480.41;1755955;81;21595;-70
2021/03/22 04:33:49;;;;;;;21.80;10.48;;;;;;;-1.06;81.39;100490.33;1766261;80;21103;-70
2021/03/22 04:36:15;;;;;;;27.48;11.20;;;;;;;-1.08;81.40;100489.11;1756171;80;21658;-69
2021/03/22 04:38:42;;;;;;;22.17;10.30;;;;;;;-1.07;81.40;100488.18;1755962;80;21726;-70
2021/03/22 04:41:08;;;;;;;33.53;13.78;;;;;;;-1.05;81.41;100489.38;1756125;80;22142;-70
2021/03/22 04:43:34;;;;;;;25.88;13.35;;;;;;;-1.06;81.38;100492.95;1786781;80;21131;-70
2021/03/22 04:46:01;;;;;;;25.40;10.55;;;;;;;-1.05;81.40;100488.06;1787008;80;21143;-69
2021/03/22 04:48:27;;;;;;;29.05;12.60;;;;;;;-1.03;81.39;100495.38;1770361;80;21125;-70
2021/03/22 04:50:53;;;;;;;34.33;20.30;;;;;;;-1.03;81.39;100501.91;1756154;80;21131;-70
2021/03/22 04:53:20;;;;;;;41.80;21.82;;;;;;;-1.03;81.40;100503.23;1755933;81;21171;-69
2021/03/22 04:55:46;;;;;;;23.30;11.80;;;;;;;-1.03;81.40;100494.06;1755753;80;21179;-70
2021/03/22 04:58:12;;;;;;;23.22;9.13;;;;;;;-1.00;81.40;100492.56;1755978;80;21316;-70
2021/03/22 05:00:44;;;;;;;25.15;9.30;;;;;;;-1.02;81.41;100499.65;1755713;81;21124;-70
2021/03/22 05:03:14;;;;;;;24.43;11.60;;;;;;;-1.01;81.40;100509.19;1773195;80;21171;-70
2021/03/22 05:05:40;;;;;;;24.20;11.38;;;;;;;-1.02;81.39;100506.19;1756171;81;22029;-70
2021/03/22 05:08:10;;;;;;;32.90;14.68;;;;;;;-1.03;81.40;100503.23;1757841;80;21171;-70
2021/03/22 05:10:40;;;;;;;46.67;20.10;;;;;;;-1.02;81.38;100506.19;1756216;81;21183;-70
2021/03/22 05:13:08;;;;;;;47.27;24.55;;;;;;;-1.02;81.38;100504.42;1755823;81;21816;-70
2021/03/22 05:15:34;;;;;;;59.67;28.83;;;;;;;-1.01;81.37;100506.58;1755815;81;21131;-70
2021/03/22 05:18:00;;;;;;;65.90;27.15;;;;;;;-1.03;81.38;100509.30;1766716;80;21257;-70
2021/03/22 05:20:36;;;;;;;51.80;21.93;;;;;;;-0.99;81.36;100512.58;1786774;79;21159;-70
2021/03/22 05:23:07;;;;;;;41.95;19.67;;;;;;;-0.97;81.33;100512.46;1787082;80;21136;-70
2021/03/22 05:25:33;;;;;;;41.33;17.73;;;;;;;-0.92;81.37;100508.64;1786782;80;21144;-70
2021/03/22 05:28:00;;;;;;;33.13;14.80;;;;;;;-0.88;81.35;100508.80;1756585;80;21143;-70
2021/03/22 05:30:27;;;;;;;29.00;13.85;;;;;;;-0.86;81.34;100506.10;1786650;80;21171;-70
2021/03/22 05:33:01;;;;;;;45.33;15.88;;;;;;;-0.85;81.33;100511.25;1777501;80;21171;-70
2021/03/22 05:35:27;;;;;;;29.07;13.60;;;;;;;-0.84;81.32;100511.61;1757818;80;21104;-70
2021/03/22 05:37:54;;;;;;;30.10;14.75;;;;;;;-0.81;81.31;100517.95;1755789;81;21140;-70
2021/03/22 05:40:34;;;;;;;33.13;20.27;;;;;;;-0.76;81.30;100515.91;1756094;81;21179;-70
2021/03/22 05:43:42;;;;;;;37.13;16.73;;;;;;;-0.65;81.32;100518.70;1755384;81;21261;-70
2021/03/22 05:46:47;;;;;;;21.10;7.72;;;;;;;-0.49;81.32;100522.98;1757474;80;21187;-70
2021/03/22 05:49:25;;;;;;;20.55;7.62;;;;;;;-0.48;81.25;100528.11;1756181;80;21143;-70
2021/03/22 05:52:34;;;;;;;18.07;6.85;;;;;;;0.19;81.34;100528.53;1755780;81;21187;-70
2021/03/22 05:55:45;;;;;;;19.70;7.40;;;;;;;-0.03;81.16;100526.94;1755854;81;21120;-70
2021/03/22 05:58:23;;;;;;;21.75;8.03;;;;;;;-0.21;81.12;100536.02;1757975;80;21239;-70
2021/03/22 06:00:58;;;;;;;20.52;10.82;;;;;;;-0.31;81.13;100542.75;1757577;80;21187;-70
2021/03/22 06:03:50;;;;;;;23.98;8.98;;;;;;;-0.37;81.11;100540.53;1774106;80;21139;-70
2021/03/22 06:06:30;;;;;;;21.50;9.15;;;;;;;-0.38;81.10;100544.08;1783914;79;21175;-70
2021/03/22 06:09:27;;;;;;;20.35;8.38;;;;;;;-0.38;81.08;100543.61;1787033;79;21135;-70
2021/03/22 06:12:25;;;;;;;18.25;7.33;;;;;;;-0.39;81.08;100545.04;1774951;79;22094;-70
2021/03/22 06:15:12;;;;;;;26.60;12.20;;;;;;;-0.41;81.05;100552.14;1767194;80;21200;-70
2021/03/22 06:17:55;;;;;;;29.37;12.78;;;;;;;-0.46;81.04;100552.91;1766399;80;21143;-70
2021/03/22 06:20:30;;;;;;;30.10;14.43;;;;;;;-0.44;81.00;100557.57;1786905;80;21116;-70
2021/03/22 06:23:06;;;;;;;47.93;25.65;;;;;;;-0.29;80.95;100561.86;1787058;80;21123;-70
2021/03/22 06:25:34;;;;;;;60.58;29.85;;;;;;;0.13;80.84;100566.97;1751853;81;21401;-71
2021/03/22 06:28:18;;;;;;;69.05;39.40;;;;;;;0.58;80.78;100559.62;1752503;81;21204;-71
2021/03/22 06:31:02;;;;;;;59.03;29.98;;;;;;;0.96;80.77;100569.67;1698861;82;21153;-71
2021/03/22 06:33:41;;;;;;;149.93;38.42;;;;;;;1.35;80.78;100573.50;1694792;83;21172;-71
2021/03/22 06:36:14;;;;;;;36.40;18.02;;;;;;;1.69;80.76;100568.50;1695268;84;21180;-71
2021/03/22 06:38:46;;;;;;;16.27;6.47;;;;;;;1.96;80.73;100577.03;1706320;83;22031;-71
2021/03/22 06:41:49;;;;;;;14.95;5.72;;;;;;;2.13;80.67;100585.84;1724062;83;21165;-71
2021/03/22 06:44:22;;;;;;;17.02;5.40;;;;;;;2.14;80.66;100590.17;1712735;82;21188;-71
2021/03/22 06:47:02;;;;;;;19.60;7.20;;;;;;;2.19;80.55;100593.28;1693050;84;21132;-71
2021/03/22 06:49:32;;;;;;;19.12;6.47;;;;;;;2.28;80.50;100588.69;1705800;83;21575;-71
2021/03/22 06:52:06;;;;;;;46.10;16.55;;;;;;;2.38;80.41;100592.31;1724092;82;21210;-71
2021/03/22 06:54:37;;;;;;;25.55;8.85;;;;;;;2.46;80.26;100595.20;1723929;82;21208;-71
2021/03/22 06:57:13;;;;;;;24.20;7.83;;;;;;;2.56;80.18;100598.48;1745006;81;21616;-71
2021/03/22 06:59:42;;;;;;;21.52;8.60;;;;;;;2.63;80.06;100595.75;1692923;84;21171;-72
2021/03/22 07:02:20;;;;;;;18.15;8.28;;;;;;;2.70;79.93;100595.66;1700487;82;21158;-71
2021/03/22 07:04:46;;;;;;;18.27;7.00;;;;;;;2.82;79.84;100605.25;1702301;83;22087;-71
2021/03/22 07:07:22;;;;;;;23.83;8.95;;;;;;;2.83;79.66;100601.67;1722432;83;21235;-71
2021/03/22 07:09:55;;;;;;;55.12;10.32;;;;;;;2.81;79.54;100599.65;1722505;83;21160;-71
2021/03/22 07:12:38;;;;;;;30.50;9.53;;;;;;;2.89;79.43;100603.83;1693516;84;21210;-71
2021/03/22 07:15:25;;;;;;;33.58;8.95;;;;;;;2.98;79.30;100607.11;1693598;84;21211;-71
2021/03/22 07:18:23;;;;;;;64.03;9.98;;;;;;;3.07;79.16;100611.66;1688313;83;21320;-71
2021/03/22 07:21:02;;;;;;;14.65;5.87;;;;;;;3.11;78.96;100607.00;1724166;83;21181;-71
2021/03/22 07:23:49;;;;;;;20.37;9.65;;;;;;;3.19;78.79;100606.78;1724072;82;21580;-71
2021/03/22 07:26:23;;;;;;;25.10;11.95;;;;;;;3.22;78.66;100611.81;1723336;82;21188;-70
2021/03/22 07:29:14;;;;;;;24.15;9.25;;;;;;;3.37;78.53;100611.96;1714528;82;21168;-71
2021/03/22 07:31:49;;;;;;;71.28;9.68;;;;;;;3.47;78.37;100617.34;1716260;83;21601;-71
2021/03/22 07:34:47;;;;;;;16.40;6.22;;;;;;;3.46;78.16;100615.19;1700039;83;21640;-71
2021/03/22 07:37:31;;;;;;;28.98;6.70;;;;;;;3.44;78.00;100615.80;1716183;82;21178;-71
2021/03/22 07:40:02;;;;;;;14.15;6.42;;;;;;;3.42;77.83;100617.70;1752313;81;21131;-71
2021/03/22 07:42:46;;;;;;;18.07;5.83;;;;;;;3.42;77.66;100625.61;1752445;81;21554;-73
2021/03/22 07:45:49;;;;;;;39.10;8.48;;;;;;;3.48;77.48;100622.48;1720153;83;21277;-70
2021/03/22 07:48:41;;;;;;;27.80;9.70;;;;;;;3.56;77.35;100623.69;1706661;81;21207;-71
2021/03/22 07:51:40;;;;;;;21.05;6.53;;;;;;;3.70;77.16;100622.12;1739067;81;21731;-71
2021/03/22 07:54:26;;;;;;;16.45;6.55;;;;;;;3.78;76.98;100626.33;1736359;81;21119;-71
2021/03/22 07:57:13;;;;;;;18.90;7.10;;;;;;;3.90;76.81;100631.48;1694926;84;21152;-71
2021/03/22 07:59:50;;;;;;;18.30;9.68;;;;;;;3.95;76.62;100637.70;1694829;84;21153;-72
2021/03/22 08:02:48;;;;;;;19.70;7.45;;;;;;;3.98;76.47;100641.41;1713170;83;21168;-72
2021/03/22 08:05:40;;;;;;;53.98;10.05;;;;;;;4.08;76.33;100651.61;1694320;83;21628;-72
2021/03/22 08:08:37;;;;;;;12.82;5.67;;;;;;;4.10;76.17;100645.72;1694738;84;22025;-71
2021/03/22 08:11:29;;;;;;;31.77;9.73;;;;;;;4.14;75.96;100642.36;1695080;84;21137;-71
2021/03/22 08:14:22;;;;;;;20.82;8.05;;;;;;;4.22;75.82;100648.68;1701634;83;21230;-71
2021/03/22 08:17:17;;;;;;;13.80;5.00;;;;;;;4.31;75.61;100653.23;1713070;83;21221;-72
2021/03/22 08:20:21;;;;;;;13.95;6.03;;;;;;;4.36;75.40;100657.64;1704519;83;21169;-72
2021/03/22 08:23:25;;;;;;;15.60;5.90;;;;;;;4.48;75.20;100659.78;1702105;83;21521;-72
2021/03/22 08:25:54;;;;;;;16.12;6.78;;;;;;;4.57;74.98;100653.77;1710470;83;21613;-72
2021/03/22 08:28:45;;;;;;;14.95;6.33;;;;;;;4.60;74.77;100659.27;1709154;83;21503;-72
2021/03/22 08:31:32;;;;;;;12.78;6.30;;;;;;;4.69;74.64;100655.87;1703385;83;21619;-72
2021/03/22 08:34:21;;;;;;;27.13;10.95;;;;;;;4.76;74.38;100668.93;1704226;83;21624;-72
2021/03/22 08:37:11;;;;;;;10.48;5.00;;;;;;;4.84;74.10;100670.47;1697520;83;21607;-72
2021/03/22 08:39:58;;;;;;;29.10;7.65;;;;;;;4.86;73.79;100668.52;1703815;82;21176;-72
2021/03/22 08:42:34;;;;;;;22.58;8.40;;;;;;;5.02;73.59;100676.39;1727143;82;21180;-73
2021/03/22 08:45:12;;;;;;;10.58;3.95;;;;;;;5.16;73.34;100682.33;1726556;81;21187;-72
2021/03/22 08:47:53;;;;;;;16.25;6.17;;;;;;;5.22;73.04;100676.52;1735437;81;21655;-72
2021/03/22 08:50:25;;;;;;;21.48;7.87;;;;;;;5.27;72.76;100684.44;1749819;81;22281;-72
2021/03/22 08:53:11;;;;;;;12.18;4.00;;;;;;;5.29;72.25;100682.48;1741568;81;21151;-73
2021/03/22 08:55:54;;;;;;;12.43;4.47;;;;;;;5.29;71.93;100687.77;1720917;83;21715;-72
2021/03/22 08:58:30;;;;;;;19.80;8.28;;;;;;;5.33;71.62;100691.84;1740389;81;21612;-72
2021/03/22 09:01:18;;;;;;;12.28;5.10;;;;;;;5.50;71.38;100695.22;1728533;82;21187;-72
2021/03/22 09:03:46;;;;;;;47.50;16.27;;;;;;;5.68;71.03;100693.30;1711083;82;21263;-72
2021/03/22 09:06:27;;;;;;;18.42;8.00;;;;;;;5.71;70.61;100703.61;1704102;82;21184;-72
2021/03/22 09:08:59;;;;;;;8.18;3.72;;;;;;;5.78;70.37;100698.14;1724047;82;22135;-72
2021/03/22 09:11:34;;;;;;;19.98;6.92;;;;;;;5.85;70.06;100694.00;1716843;82;21147;-71
2021/03/22 09:14:11;;;;;;;13.40;5.15;;;;;;;5.84;69.67;100698.45;1751249;81;22027;-72
2021/03/22 09:16:43;;;;;;;14.53;6.08;;;;;;;5.90;69.41;100693.16;1751998;81;21231;-73
2021/03/22 09:19:16;;;;;;;19.30;6.05;;;;;;;6.08;69.14;100695.53;1677157;83;21726;-72
2021/03/22 09:21:53;;;;;;;42.30;15.20;;;;;;;6.21;68.87;100705.88;1694599;83;21200;-72
2021/03/22 09:24:43;;;;;;;12.55;4.62;;;;;;;6.20;68.32;100703.71;1712389;83;21594;-72
2021/03/22 09:27:24;;;;;;;9.48;3.25;;;;;;;6.20;67.95;100709.02;1722974;81;21156;-71
2021/03/22 09:30:04;;;;;;;57.53;20.35;;;;;;;6.18;67.53;100707.00;1752241;81;21200;-71
2021/03/22 09:32:36;;;;;;;60.20;22.87;;;;;;;6.17;67.27;100706.64;1746805;81;21465;-72
2021/03/22 09:35:17;;;;;;;30.65;11.73;;;;;;;6.20;66.87;100711.66;1718615;83;21217;-72
2021/03/22 09:38:00;;;;;;;12.53;4.60;;;;;;;6.22;66.59;100716.84;1751984;81;21184;-72
2021/03/22 09:40:32;;;;;;;31.75;9.63;;;;;;;6.27;66.08;100718.09;1692096;83;21743;-72
2021/03/22 09:43:14;;;;;;;16.95;7.42;;;;;;;6.23;65.37;100707.41;1730645;81;21600;-72
2021/03/22 09:46:04;;;;;;;14.80;5.97;;;;;;;6.33;64.80;100712.25;1694412;84;21590;-72
2021/03/22 09:48:37;;;;;;;14.58;3.27;;;;;;;6.41;64.36;100716.39;1709824;83;21277;-72
2021/03/22 09:51:09;;;;;;;32.48;5.80;;;;;;;6.54;63.97;100709.03;1751422;81;21243;-72
2021/03/22 09:53:56;;;;;;;38.75;12.63;;;;;;;6.51;63.68;100701.36;1751608;81;21597;-72
2021/03/22 09:56:32;;;;;;;15.58;8.38;;;;;;;6.53;63.46;100699.42;1720427;82;21164;-72
2021/03/22 10:02:42;;;;;;;10.82;4.62;;;;;;;6.87;62.64;100704.33;1810079;78;22552;-73
2021/03/22 10:05:49;;;;;;;7.60;3.20;;;;;;;6.85;62.24;100695.70;1769959;79;21155;-73
2021/03/22 10:08:23;;;;;;;11.48;3.08;;;;;;;6.91;61.92;100695.13;1796065;79;21241;-73
2021/03/22 10:10:56;;;;;;;8.88;3.40;;;;;;;6.99;61.43;100702.75;1786089;79;21150;-72
2021/03/22 10:13:36;;;;;;;9.55;4.42;;;;;;;7.02;60.93;100706.92;1771678;79;21210;-72
2021/03/22 10:16:24;;;;;;;25.80;7.92;;;;;;;6.97;60.58;100698.54;1796228;79;26821;-72
2021/03/22 10:18:58;;;;;;;4.30;1.95;;;;;;;6.98;60.25;100705.53;1781514;79;21235;-73
2021/03/22 10:21:29;;;;;;;5.58;1.72;;;;;;;7.10;59.92;100702.26;1764742;81;22152;-73
2021/03/22 10:24:09;;;;;;;14.45;2.98;;;;;;;7.13;59.45;100699.32;1764715;79;21212;-72
2021/03/22 10:26:42;;;;;;;5.83;2.50;;;;;;;7.21;59.04;100704.28;1764322;81;21179;-73
2021/03/22 10:29:23;;;;;;;4.70;2.37;;;;;;;7.39;58.59;100703.89;1733694;81;21151;-73
2021/03/22 10:32:12;;;;;;;5.62;3.08;;;;;;;7.48;58.26;100704.38;1785584;79;21140;-73
2021/03/22 10:34:53;;;;;;;7.62;2.45;;;;;;;7.48;57.73;100712.34;1741180;81;21172;-73
2021/03/22 10:37:29;;;;;;;7.00;1.98;;;;;;;7.32;57.29;100714.72;1731237;82;21736;-72
2021/03/22 10:40:06;;;;;;;8.30;2.60;;;;;;;7.03;56.58;100712.11;1759291;81;21243;-73
2021/03/22 10:42:41;;;;;;;23.00;3.42;;;;;;;7.04;56.17;100722.20;1712179;81;21159;-73
2021/03/22 10:45:37;;;;;;;11.70;5.15;;;;;;;7.12;55.54;100713.06;1760958;81;21147;-73
2021/03/22 10:48:26;;;;;;;8.53;4.12;;;;;;;6.89;54.75;100723.61;1761085;81;21266;-73
2021/03/22 10:51:17;;;;;;;32.42;10.48;;;;;;;6.65;54.27;100737.73;1762980;80;21160;-72
2021/03/22 10:54:00;;;;;;;19.45;7.30;;;;;;;6.65;53.81;100733.76;1761701;81;21119;-72
2021/03/22 10:56:38;;;;;;;13.03;4.33;;;;;;;6.88;53.06;100736.50;1760315;81;21427;-72
2021/03/22 10:59:13;;;;;;;6.22;3.00;;;;;;;7.04;52.35;100731.48;1738793;81;21187;-72
2021/03/22 11:01:39;;;;;;;29.60;8.98;;;;;;;7.10;51.70;100742.03;1751827;80;22236;-72
2021/03/22 11:04:16;;;;;;;21.35;7.75;;;;;;;7.18;51.28;100732.39;1760890;80;21170;-72
2021/03/22 11:06:44;;;;;;;50.83;10.75;;;;;;;7.12;51.10;100730.78;1748940;81;21154;-72
2021/03/22 11:09:17;;;;;;;84.87;22.30;;;;;;;7.28;50.93;100723.93;1746378;80;21257;-72
2021/03/22 11:11:44;;;;;;;10.70;3.90;;;;;;;7.51;50.71;100727.97;1739003;82;21209;-73
2021/03/22 11:14:10;;;;;;;12.58;5.58;;;;;;;7.61;49.95;100735.06;1763892;81;21185;-73
2021/03/22 11:16:37;;;;;;;16.52;3.35;;;;;;;7.60;49.37;100733.41;1751676;81;21612;-73
2021/03/22 11:19:26;;;;;;;9.85;3.72;;;;;;;7.64;48.73;100732.13;1730805;82;21170;-73
2021/03/22 11:21:57;;;;;;;7.12;3.30;;;;;;;7.66;48.29;100736.81;1708693;81;21192;-73
2021/03/22 11:24:41;;;;;;;4.95;2.15;;;;;;;7.46;47.93;100732.85;1746634;81;21119;-72
2021/03/22 11:27:12;;;;;;;11.78;4.90;;;;;;;7.47;47.92;100737.19;1740834;80;21280;-73
2021/03/22 11:30:04;;;;;;;32.28;10.32;;;;;;;7.62;47.88;100730.12;1718833;81;21183;-74
2021/03/22 11:32:32;;;;;;;17.60;4.87;;;;;;;7.84;48.04;100727.14;1752689;81;21759;-73
2021/03/22 11:35:14;;;;;;;6.95;2.35;;;;;;;7.90;47.82;100726.55;1755371;80;21155;-73
2021/03/22 11:37:54;;;;;;;34.65;8.05;;;;;;;7.78;47.58;100730.34;1675657;83;21165;-73
2021/03/22 11:40:24;;;;;;;26.27;11.40;;;;;;;7.58;47.59;100734.03;1703381;84;21242;-73
2021/03/22 11:42:56;;;;;;;11.57;4.87;;;;;;;7.34;47.53;100731.34;1757841;81;21135;-73
2021/03/22 11:45:38;;;;;;;37.80;10.32;;;;;;;7.14;47.46;100745.61;1723940;82;21664;-73
2021/03/22 11:48:22;;;;;;;5.87;2.75;;;;;;;7.04;47.36;100742.08;1753346;81;21184;-73
2021/03/22 11:51:02;;;;;;;15.98;6.30;;;;;;;7.24;47.39;100733.17;1715836;82;21122;-73
2021/03/22 11:53:29;;;;;;;6.42;2.70;;;;;;;7.48;47.33;100740.20;1732818;81;21269;-73
2021/03/22 11:56:16;;;;;;;14.10;3.20;;;;;;;7.75;47.43;100727.98;1748743;81;21184;-73
2021/03/22 11:58:43;;;;;;;24.67;7.58;;;;;;;7.85;47.42;100727.45;1748962;81;21174;-73
2021/03/22 12:01:24;;;;;;;25.12;8.68;;;;;;;7.80;47.29;100727.91;1749357;81;21152;-73
2021/03/22 12:04:08;;;;;;;29.82;8.78;;;;;;;7.79;47.35;100728.05;1748848;81;21166;-73